createdAt,value
2022-10-20T00:00:50.396Z,97.49
2022-10-20T00:02:52.749Z,97.51
2022-10-20T00:04:54.851Z,97.32
2022-10-20T00:06:56.950Z,97.95
2022-10-20T00:09:03.874Z,96.90
2022-10-20T00:11:06.547Z,97.07
2022-10-20T00:13:08.815Z,96.37
2022-10-20T00:15:10.918Z,95.07
2022-10-20T00:17:12.922Z,96.08
2022-10-20T00:19:15.045Z,95.29
2022-10-20T00:21:18.673Z,93.91
2022-10-20T00:23:21.171Z,93.22
2022-10-20T00:25:23.242Z,92.57
2022-10-20T00:27:25.238Z,92.96
2022-10-20T00:29:27.235Z,92.31
2022-10-20T00:31:30.363Z,91.42
2022-10-20T00:33:33.369Z,91.13
2022-10-20T00:35:38.694Z,90.89
2022-10-20T00:37:40.729Z,90.33
2022-10-20T00:39:42.814Z,90.20
2022-10-20T00:41:44.856Z,89.96
2022-10-20T00:43:57.554Z,89.11
2022-10-20T00:45:59.540Z,89.30
2022-10-20T00:48:14.504Z,89.92
2022-10-20T00:50:29.768Z,89.73
2022-10-20T00:52:32.504Z,89.42
2022-10-20T00:54:35.002Z,89.54
2022-10-20T00:56:40.754Z,89.40
2022-10-20T00:58:43.963Z,89.31
2022-10-20T01:00:48.610Z,88.72
2022-10-20T01:02:53.104Z,88.21
2022-10-20T01:04:55.161Z,87.71
2022-10-20T01:06:58.098Z,86.85
2022-10-20T01:09:00.891Z,86.93
2022-10-20T01:11:18.297Z,87.34
2022-10-20T01:14:02.819Z,86.49
2022-10-20T01:16:45.997Z,86.30
2022-10-20T01:19:23.580Z,86.54
2022-10-20T01:21:43.523Z,86.93
2022-10-20T01:24:12.965Z,87.29
2022-10-20T01:26:36.650Z,87.24
2022-10-20T01:28:55.235Z,88.02
2022-10-20T01:31:00.328Z,87.67
2022-10-20T01:33:16.594Z,87.33
2022-10-20T01:35:25.707Z,87.15
2022-10-20T01:37:34.516Z,87.03
2022-10-20T01:39:54.979Z,86.52
2022-10-20T01:42:04.296Z,86.89
2022-10-20T01:44:11.493Z,86.72
2022-10-20T01:46:15.911Z,86.49
2022-10-20T01:48:21.845Z,86.57
2022-10-20T01:50:25.138Z,85.99
2022-10-20T01:52:29.288Z,86.55
2022-10-20T01:54:31.507Z,86.87
2022-10-20T01:56:51.775Z,87.29
2022-10-20T01:59:14.743Z,87.14
2022-10-20T02:01:31.462Z,88.05
2022-10-20T02:03:46.925Z,89.03
2022-10-20T02:06:08.044Z,89.14
2022-10-20T02:08:26.628Z,89.54
2022-10-20T02:10:37.180Z,89.46
2022-10-20T02:12:43.736Z,90.17
2022-10-20T02:15:08.301Z,90.80
2022-10-20T02:17:15.526Z,90.75
2022-10-20T02:19:21.137Z,91.85
2022-10-20T02:21:23.474Z,91.76
2022-10-20T02:23:25.593Z,92.39
2022-10-20T02:25:30.614Z,93.08
2022-10-20T02:27:37.576Z,93.05
2022-10-20T02:29:45.162Z,92.95
2022-10-20T02:31:47.804Z,93.46
2022-10-20T02:33:50.700Z,93.47
2022-10-20T02:35:58.162Z,93.65
2022-10-20T02:38:00.802Z,93.87
2022-10-20T02:40:03.345Z,94.36
2022-10-20T02:42:06.409Z,94.06
2022-10-20T02:44:08.516Z,94.34
2022-10-20T02:46:10.996Z,94.18
2022-10-20T02:48:12.824Z,94.24
2022-10-20T02:50:14.947Z,95.00
2022-10-20T02:52:17.049Z,94.02
2022-10-20T02:54:19.296Z,94.16
2022-10-20T02:56:24.492Z,93.72
2022-10-20T02:58:28.725Z,93.65
2022-10-20T03:00:31.345Z,93.86
2022-10-20T03:02:33.778Z,93.97
2022-10-20T03:04:35.687Z,92.29
2022-10-20T03:06:37.745Z,92.36
2022-10-20T03:08:39.854Z,92.57
2022-10-20T03:10:42.923Z,92.11
2022-10-20T03:12:45.078Z,92.60
2022-10-20T03:14:47.111Z,91.54
2022-10-20T03:16:49.118Z,91.19
2022-10-20T03:18:51.514Z,91.57
2022-10-20T03:20:54.562Z,89.80
2022-10-20T03:22:56.620Z,90.97
2022-10-20T03:24:58.660Z,90.28
2022-10-20T03:27:00.747Z,89.73
2022-10-20T03:29:02.937Z,90.09
2022-10-20T03:31:05.191Z,89.36
2022-10-20T03:33:07.261Z,89.50
2022-10-20T03:35:09.907Z,88.84
2022-10-20T03:37:12.075Z,88.88
2022-10-20T03:39:14.093Z,88.36
2022-10-20T03:41:16.729Z,88.02
2022-10-20T03:43:18.839Z,87.34
2022-10-20T03:45:30.434Z,86.75
2022-10-20T03:47:32.474Z,87.02
2022-10-20T03:49:34.714Z,86.94
2022-10-20T03:51:36.812Z,87.49
2022-10-20T03:53:38.831Z,87.25
2022-10-20T03:55:40.896Z,87.68
2022-10-20T03:57:43.453Z,88.14
2022-10-20T03:59:45.627Z,88.35
2022-10-20T04:01:50.508Z,87.90
2022-10-20T04:03:52.795Z,88.09
2022-10-20T04:05:58.131Z,87.72
2022-10-20T04:08:00.225Z,88.01
2022-10-20T04:10:02.483Z,87.92
2022-10-20T04:12:05.602Z,88.35
2022-10-20T04:14:07.770Z,88.18
2022-10-20T04:16:10.114Z,88.03
2022-10-20T04:18:12.232Z,88.03
2022-10-20T04:20:14.332Z,88.22
2022-10-20T04:22:16.588Z,89.32
2022-10-20T04:24:18.710Z,88.87
2022-10-20T04:26:20.780Z,88.88
2022-10-20T04:28:22.929Z,89.29
2022-10-20T04:30:24.940Z,89.34
2022-10-20T04:32:27.067Z,89.85
2022-10-20T04:34:29.217Z,89.63
2022-10-20T04:36:31.422Z,89.90
2022-10-20T04:38:34.638Z,90.27
2022-10-20T04:40:36.784Z,89.90
2022-10-20T04:42:38.830Z,90.35
2022-10-20T04:44:40.953Z,90.74
2022-10-20T04:46:43.109Z,90.89
2022-10-20T04:48:45.832Z,90.94
2022-10-20T04:50:47.953Z,92.20
2022-10-20T04:52:51.446Z,92.34
2022-10-20T04:54:53.639Z,92.71
2022-10-20T04:56:56.356Z,92.62
2022-10-20T04:58:59.562Z,92.28
2022-10-20T05:01:09.754Z,91.76
2022-10-20T05:03:12.369Z,91.53
2022-10-20T05:05:14.613Z,91.06
2022-10-20T05:07:17.296Z,91.33
2022-10-20T05:09:19.422Z,91.40
2022-10-20T05:11:23.642Z,91.05
2022-10-20T05:13:26.025Z,89.73
2022-10-20T05:15:28.191Z,89.69
2022-10-20T05:17:31.133Z,90.38
2022-10-20T05:19:33.154Z,90.73
2022-10-20T05:21:35.593Z,89.77
2022-10-20T05:23:39.529Z,89.72
2022-10-20T05:25:41.657Z,90.15
2022-10-20T05:27:43.717Z,90.08
2022-10-20T05:29:45.808Z,90.53
2022-10-20T05:31:50.622Z,90.93
2022-10-20T05:33:56.919Z,91.75
2022-10-20T05:35:59.242Z,91.99
2022-10-20T05:38:01.305Z,92.45
2022-10-20T05:40:05.583Z,93.17
2022-10-20T05:42:10.167Z,92.40
2022-10-20T05:44:13.272Z,92.59
2022-10-20T05:46:15.715Z,92.55
2022-10-20T05:48:17.846Z,92.02
2022-10-20T05:50:19.919Z,91.36
2022-10-20T05:52:22.628Z,92.79
2022-10-20T05:54:24.788Z,93.29
2022-10-20T05:56:28.364Z,93.86
2022-10-20T05:58:30.699Z,94.69
2022-10-20T06:00:41.829Z,95.27
2022-10-20T06:02:44.280Z,97.06
2022-10-20T06:04:46.298Z,97.54
2022-10-20T06:06:49.223Z,98.93
2022-10-20T06:08:51.572Z,98.40
2022-10-20T06:10:56.583Z,98.90
2022-10-20T06:12:59.059Z,99.75
2022-10-20T06:15:01.370Z,100.00
2022-10-20T06:17:05.136Z,100.00
2022-10-20T06:19:07.440Z,99.55
2022-10-20T06:21:16.048Z,100.00
2022-10-20T06:23:18.111Z,100.00
2022-10-20T06:25:22.504Z,100.00
2022-10-20T06:27:28.939Z,99.73
2022-10-20T06:29:33.955Z,100.00
2022-10-20T06:31:41.783Z,100.00
2022-10-20T06:33:44.850Z,99.13
2022-10-20T06:35:47.257Z,98.33
2022-10-20T06:37:51.870Z,95.65
2022-10-20T06:39:53.856Z,93.58
2022-10-20T06:41:56.022Z,93.85
2022-10-20T06:46:02.509Z,88.64
2022-10-20T06:48:05.130Z,88.67
2022-10-20T06:50:07.918Z,88.12
2022-10-20T06:54:22.000Z,85.14
2022-10-20T06:56:25.857Z,83.55
2022-10-20T06:58:29.152Z,82.58
2022-10-20T07:00:31.773Z,83.21
2022-10-20T07:02:39.576Z,82.10
2022-10-20T07:04:41.898Z,81.56
2022-10-20T07:06:47.193Z,81.20
2022-10-20T07:08:51.186Z,79.69
2022-10-20T07:11:05.220Z,78.23
2022-10-20T07:13:07.243Z,76.40
2022-10-20T07:15:09.749Z,77.14
2022-10-20T07:17:13.305Z,77.35
2022-10-20T07:19:15.449Z,73.87
2022-10-20T07:21:21.035Z,74.84
2022-10-20T07:23:25.028Z,73.52
2022-10-20T07:25:27.218Z,72.00
2022-10-20T07:27:30.589Z,72.30
2022-10-20T07:29:36.793Z,70.24
2022-10-20T07:31:42.223Z,69.81
2022-10-20T07:33:56.511Z,68.47
2022-10-20T07:36:18.501Z,65.92
2022-10-20T07:38:20.689Z,67.94
2022-10-20T07:42:30.289Z,68.75
2022-10-20T07:44:32.192Z,69.17
2022-10-20T07:46:34.226Z,70.03
2022-10-20T07:48:36.823Z,69.80
2022-10-20T07:50:40.513Z,69.26
2022-10-20T07:52:50.844Z,68.26
2022-10-20T07:55:01.620Z,69.06
2022-10-20T07:57:15.379Z,70.26
2022-10-20T07:59:18.468Z,69.56
2022-10-20T08:01:20.918Z,69.43
2022-10-20T08:03:26.307Z,69.78
2022-10-20T08:05:29.753Z,70.82
2022-10-20T08:07:31.968Z,70.21
2022-10-20T08:09:34.243Z,69.38
2022-10-20T08:11:38.072Z,69.93
2022-10-20T08:13:41.224Z,70.14
2022-10-20T08:15:44.515Z,70.54
2022-10-20T08:17:46.814Z,69.92
2022-10-20T08:20:08.835Z,69.26
2022-10-20T08:22:11.021Z,68.18
2022-10-20T08:24:13.193Z,65.89
2022-10-20T08:26:23.438Z,64.20
2022-10-20T08:28:26.342Z,62.29
2022-10-20T08:30:30.756Z,64.11
2022-10-20T08:32:32.937Z,64.24
2022-10-20T08:34:35.265Z,64.03
2022-10-20T08:36:37.471Z,62.47
2022-10-20T08:38:40.586Z,62.82
2022-10-20T08:40:43.475Z,62.05
2022-10-20T08:42:45.895Z,61.58
2022-10-20T08:44:49.102Z,61.79
2022-10-20T08:46:51.358Z,62.59
2022-10-20T08:48:53.546Z,62.80
2022-10-20T08:50:56.231Z,62.20
2022-10-20T08:53:01.034Z,61.91
2022-10-20T08:55:05.748Z,61.01
2022-10-20T08:57:26.743Z,61.14
2022-10-20T08:59:39.812Z,61.85
2022-10-20T09:01:42.696Z,62.64
2022-10-20T09:04:05.157Z,63.29
2022-10-20T09:06:14.806Z,63.52
2022-10-20T09:08:17.584Z,63.94
2022-10-20T09:10:35.930Z,64.56
2022-10-20T09:12:41.769Z,65.20
2022-10-20T09:14:44.115Z,65.93
2022-10-20T09:16:59.925Z,66.91
2022-10-20T09:19:03.227Z,66.39
2022-10-20T09:21:05.184Z,65.59
2022-10-20T09:23:35.487Z,64.69
2022-10-20T09:25:36.249Z,63.39
2022-10-20T09:27:43.128Z,63.94
2022-10-20T09:29:45.664Z,63.89
2022-10-20T09:31:52.179Z,62.02
2022-10-20T09:33:54.586Z,61.98
2022-10-20T09:36:04.968Z,60.14
2022-10-20T09:38:20.035Z,60.67
2022-10-20T09:40:23.401Z,61.12
2022-10-20T09:42:34.750Z,60.79
2022-10-20T09:44:52.782Z,61.67
2022-10-20T09:46:55.266Z,62.62
2022-10-20T09:49:00.020Z,62.53
2022-10-20T09:51:02.970Z,63.52
2022-10-20T09:53:17.127Z,63.38
2022-10-20T09:55:30.236Z,63.13
2022-10-20T09:57:32.510Z,63.07
2022-10-20T09:59:36.675Z,62.25
2022-10-20T10:01:54.040Z,62.19
2022-10-20T10:04:02.145Z,62.08
2022-10-20T10:06:28.073Z,60.97
2022-10-20T10:08:44.952Z,61.44
2022-10-20T10:10:59.714Z,60.94
2022-10-20T10:15:24.510Z,61.60
2022-10-20T10:17:38.674Z,62.06
2022-10-20T10:19:52.478Z,61.39
2022-10-20T10:22:00.596Z,61.75
2022-10-20T10:24:04.704Z,61.94
2022-10-20T10:26:36.807Z,61.20
2022-10-20T10:28:40.773Z,61.94
2022-10-20T10:30:46.832Z,62.44
2022-10-20T10:32:51.684Z,61.97
2022-10-20T10:35:23.063Z,62.47
2022-10-20T10:37:25.193Z,62.83
2022-10-20T10:39:33.620Z,62.65
2022-10-20T10:42:04.234Z,62.64
2022-10-20T10:44:18.150Z,63.34
2022-10-20T10:46:26.971Z,63.32
2022-10-20T10:48:49.714Z,63.26
2022-10-20T10:50:54.606Z,63.68
2022-10-20T10:53:29.975Z,64.04
2022-10-20T10:55:48.705Z,64.02
2022-10-20T10:58:39.682Z,62.31
2022-10-20T11:00:51.066Z,63.13
2022-10-20T11:03:00.119Z,63.01
2022-10-20T11:05:33.062Z,62.29
2022-10-20T11:08:02.799Z,62.54
2022-10-20T11:10:35.059Z,63.64
2022-10-20T11:13:06.730Z,63.77
2022-10-20T11:15:27.612Z,63.41
2022-10-20T11:17:35.797Z,64.11
2022-10-20T11:19:49.752Z,64.21
2022-10-20T11:22:36.039Z,64.38
2022-10-20T11:24:41.414Z,64.58
2022-10-20T11:26:47.676Z,64.46
2022-10-20T11:28:54.386Z,64.01
2022-10-20T11:30:59.448Z,63.25
2022-10-20T11:33:09.259Z,62.78
2022-10-20T11:35:33.741Z,62.27
2022-10-20T11:37:47.862Z,61.38
2022-10-20T11:40:07.779Z,61.70
2022-10-20T11:42:51.559Z,61.13
2022-10-20T11:44:55.847Z,61.81
2022-10-20T11:47:05.565Z,61.54
2022-10-20T11:49:12.333Z,60.90
2022-10-20T11:51:26.451Z,61.11
2022-10-20T11:53:59.655Z,61.04
2022-10-20T11:56:33.207Z,61.28
2022-10-20T11:58:41.175Z,62.40
2022-10-20T12:01:08.118Z,62.62
2022-10-20T12:03:47.090Z,62.31
2022-10-20T12:06:27.208Z,60.98
2022-10-20T12:09:00.233Z,61.00
2022-10-20T12:11:05.275Z,61.10
2022-10-20T12:13:40.030Z,61.52
2022-10-20T12:15:53.886Z,61.53
2022-10-20T12:18:07.511Z,61.42
2022-10-20T12:20:21.898Z,61.96
2022-10-20T12:22:24.253Z,62.14
2022-10-20T12:24:58.244Z,61.26
2022-10-20T12:27:04.299Z,62.14
2022-10-20T12:29:33.032Z,61.43
2022-10-20T12:32:19.280Z,62.24
2022-10-20T12:35:18.810Z,61.78
2022-10-20T12:37:32.827Z,62.21
2022-10-20T12:39:52.702Z,62.32
2022-10-20T12:41:56.748Z,61.62
2022-10-20T12:44:21.674Z,60.30
2022-10-20T12:46:42.965Z,60.83
2022-10-20T12:48:48.587Z,60.69
2022-10-20T12:50:52.391Z,60.74
2022-10-20T12:52:54.925Z,59.95
2022-10-20T12:55:04.867Z,60.84
2022-10-20T12:57:41.872Z,60.40
2022-10-20T12:59:44.198Z,60.97
2022-10-20T13:02:11.199Z,61.31
2022-10-20T13:04:52.001Z,61.10
2022-10-20T13:06:54.207Z,62.02
2022-10-20T13:09:05.083Z,62.79
2022-10-20T13:11:38.143Z,62.80
2022-10-20T13:14:12.225Z,62.81
2022-10-20T13:16:21.487Z,63.69
2022-10-20T13:18:32.929Z,63.53
2022-10-20T13:20:55.097Z,63.95
2022-10-20T13:25:06.742Z,61.84
2022-10-20T13:27:10.005Z,61.92
2022-10-20T13:29:18.916Z,62.50
2022-10-20T13:31:39.772Z,62.02
2022-10-20T13:34:07.594Z,62.57
2022-10-20T13:36:42.647Z,62.64
2022-10-20T13:39:02.356Z,63.10
2022-10-20T13:41:38.087Z,63.31
2022-10-20T13:43:48.668Z,64.25
2022-10-20T13:46:11.661Z,65.27
2022-10-20T13:48:59.151Z,65.49
2022-10-20T13:51:11.211Z,66.38
2022-10-20T13:53:37.045Z,66.58
2022-10-20T13:56:04.193Z,67.42
2022-10-20T13:58:20.381Z,67.78
2022-10-20T14:00:24.932Z,68.37
2022-10-20T14:02:30.680Z,68.92
2022-10-20T14:04:37.111Z,69.77
2022-10-20T14:06:39.557Z,70.54
2022-10-20T14:08:44.205Z,72.06
2022-10-20T14:11:06.874Z,72.85
2022-10-20T14:13:14.309Z,72.93
2022-10-20T14:15:27.145Z,73.79
2022-10-20T14:17:30.283Z,74.52
2022-10-20T14:19:33.744Z,74.67
2022-10-20T14:21:49.381Z,75.81
2022-10-20T14:23:52.638Z,75.94
2022-10-20T14:25:56.269Z,76.63
2022-10-20T14:28:00.354Z,77.21
2022-10-20T14:30:09.456Z,78.23
2022-10-20T14:32:22.301Z,78.77
2022-10-20T14:34:31.255Z,79.32
2022-10-20T14:36:36.777Z,80.08
2022-10-20T14:38:39.213Z,80.50
2022-10-20T14:40:41.405Z,81.77
2022-10-20T14:42:47.598Z,81.55
2022-10-20T14:44:51.453Z,82.16
2022-10-20T14:46:56.867Z,82.49
2022-10-20T14:49:00.835Z,83.14
2022-10-20T14:51:23.479Z,83.24
2022-10-20T14:53:34.944Z,83.93
2022-10-20T14:55:37.473Z,83.89
2022-10-20T14:57:43.317Z,84.87
2022-10-20T14:59:59.274Z,84.56
2022-10-20T15:02:08.337Z,84.81
2022-10-20T15:04:26.743Z,85.46
2022-10-20T15:06:28.900Z,85.23
2022-10-20T15:08:31.180Z,85.65
2022-10-20T15:10:33.388Z,85.84
2022-10-20T15:12:49.201Z,85.70
2022-10-20T15:14:53.961Z,85.89
2022-10-20T15:16:56.160Z,85.63
2022-10-20T15:19:30.072Z,85.89
2022-10-20T15:21:32.852Z,86.06
2022-10-20T15:23:35.028Z,85.75
2022-10-20T15:25:47.528Z,85.71
2022-10-20T15:27:50.412Z,85.17
2022-10-20T15:29:52.807Z,85.50
2022-10-20T15:31:55.025Z,85.61
2022-10-20T15:33:58.873Z,86.45
2022-10-20T15:36:01.929Z,87.15
2022-10-20T15:38:04.083Z,86.69
2022-10-20T15:40:06.717Z,86.58
2022-10-20T15:42:12.147Z,85.87
2022-10-20T15:44:17.588Z,85.85
2022-10-20T15:46:20.479Z,85.98
2022-10-20T15:48:27.124Z,85.34
2022-10-20T15:50:29.908Z,85.44
2022-10-20T15:52:32.500Z,84.84
2022-10-20T15:54:34.633Z,84.48
2022-10-20T15:56:37.068Z,84.13
2022-10-20T15:58:39.957Z,83.48
2022-10-20T16:00:42.637Z,82.78
2022-10-20T16:02:44.777Z,82.91
2022-10-20T16:04:47.153Z,83.00
2022-10-20T16:06:53.069Z,83.15
2022-10-20T16:08:58.368Z,83.57
2022-10-20T16:11:00.489Z,83.57
2022-10-20T16:13:03.443Z,83.58
2022-10-20T16:15:10.481Z,83.46
2022-10-20T16:17:15.027Z,83.77
2022-10-20T16:19:17.046Z,83.68
2022-10-20T16:21:19.369Z,83.98
2022-10-20T16:23:22.441Z,84.07
2022-10-20T16:25:24.458Z,84.24
2022-10-20T16:27:26.891Z,84.37
2022-10-20T16:29:29.107Z,84.87
2022-10-20T16:31:31.806Z,84.77
2022-10-20T16:33:34.962Z,84.42
2022-10-20T16:35:44.119Z,84.69
2022-10-20T16:37:46.391Z,84.73
2022-10-20T16:39:50.187Z,84.82
2022-10-20T16:41:52.245Z,84.69
2022-10-20T16:43:57.495Z,85.21
2022-10-20T16:46:08.618Z,85.05
2022-10-20T16:48:13.592Z,85.70
2022-10-20T16:50:15.753Z,85.36
2022-10-20T16:52:18.299Z,85.70
2022-10-20T16:54:21.280Z,85.39
2022-10-20T16:56:24.947Z,85.34
2022-10-20T16:58:27.880Z,84.68
2022-10-20T17:00:30.357Z,84.24
2022-10-20T17:02:34.113Z,83.95
2022-10-20T17:04:38.811Z,83.67
2022-10-20T17:06:41.075Z,83.30
2022-10-20T17:08:43.447Z,82.91
2022-10-20T17:10:47.756Z,81.81
2022-10-20T17:14:53.115Z,81.45
2022-10-20T17:16:55.251Z,81.17
2022-10-20T17:18:59.866Z,81.03
2022-10-20T17:21:02.466Z,80.69
2022-10-20T17:23:05.338Z,80.48
2022-10-20T17:25:15.176Z,80.26
2022-10-20T17:27:17.686Z,80.74
2022-10-20T17:29:25.925Z,80.34
2022-10-20T17:31:32.038Z,80.42
2022-10-20T17:33:36.964Z,80.29
2022-10-20T17:35:39.663Z,80.45
2022-10-20T17:37:42.029Z,80.22
2022-10-20T17:39:44.324Z,80.33
2022-10-20T17:41:47.243Z,80.81
2022-10-20T17:43:49.730Z,80.39
2022-10-20T17:46:03.688Z,80.26
2022-10-20T17:48:06.331Z,80.49
2022-10-20T17:52:11.710Z,80.41
2022-10-20T17:54:14.758Z,80.14
2022-10-20T17:56:19.055Z,80.47
2022-10-20T17:58:21.473Z,80.32
2022-10-20T18:00:43.990Z,80.00
2022-10-20T18:02:50.136Z,79.88
2022-10-20T18:04:52.577Z,79.70
2022-10-20T18:06:55.567Z,79.88
2022-10-20T18:09:00.590Z,79.16
2022-10-20T18:11:03.245Z,78.78
2022-10-20T18:13:06.053Z,78.92
2022-10-20T18:15:09.334Z,78.86
2022-10-20T18:17:11.894Z,78.56
2022-10-20T18:19:15.587Z,78.44
2022-10-20T18:21:19.947Z,78.76
2022-10-20T18:23:29.772Z,78.97
2022-10-20T18:25:36.454Z,78.88
2022-10-20T18:27:47.500Z,79.03
2022-10-20T18:29:58.259Z,78.58
2022-10-20T18:32:00.633Z,78.34
2022-10-20T18:34:18.665Z,78.05
2022-10-20T18:36:21.532Z,78.11
2022-10-20T18:38:23.869Z,78.07
2022-10-20T18:40:26.390Z,77.73
2022-10-20T18:42:43.959Z,77.86
2022-10-20T18:44:54.548Z,78.08
2022-10-20T18:46:57.864Z,77.67
2022-10-20T18:49:07.205Z,78.02
2022-10-20T18:51:12.158Z,77.96
2022-10-20T18:53:16.750Z,77.65
2022-10-20T18:55:19.004Z,78.13
2022-10-20T18:57:21.148Z,78.33
2022-10-20T18:59:23.362Z,78.40
2022-10-20T19:01:29.318Z,78.16
2022-10-20T19:03:32.255Z,78.22
2022-10-20T19:05:37.738Z,78.35
2022-10-20T19:07:40.092Z,78.27
2022-10-20T19:09:42.595Z,78.08
2022-10-20T19:11:46.032Z,78.45
2022-10-20T19:13:48.713Z,78.04
2022-10-20T19:15:51.091Z,77.96
2022-10-20T19:18:11.461Z,78.35
2022-10-20T19:20:13.565Z,78.41
2022-10-20T19:22:16.897Z,78.26
2022-10-20T19:24:22.691Z,78.20
2022-10-20T19:26:57.004Z,77.99
2022-10-20T19:29:15.202Z,78.24
2022-10-20T19:31:38.775Z,77.98
2022-10-20T19:33:40.958Z,78.13
2022-10-20T19:35:43.147Z,78.17
2022-10-20T19:38:30.646Z,78.00
2022-10-20T19:40:39.517Z,78.00
2022-10-20T19:42:41.615Z,78.15
2022-10-20T19:44:45.476Z,77.56
2022-10-20T19:46:50.410Z,77.83
2022-10-20T19:48:52.824Z,77.41
2022-10-20T19:50:54.951Z,77.88
2022-10-20T19:52:58.839Z,78.11
2022-10-20T19:55:01.414Z,77.44
2022-10-20T19:57:06.404Z,78.13
2022-10-20T19:59:09.019Z,78.21
2022-10-20T20:01:11.622Z,78.07
2022-10-20T20:03:14.390Z,77.79
2022-10-20T20:05:16.880Z,78.07
2022-10-20T20:07:19.090Z,78.07
2022-10-20T20:09:21.364Z,78.10
2022-10-20T20:11:30.908Z,78.32
2022-10-20T20:13:33.450Z,78.20
2022-10-20T20:15:35.517Z,78.67
2022-10-20T20:17:37.985Z,78.83
2022-10-20T20:19:40.719Z,78.49
2022-10-20T20:21:43.271Z,78.46
2022-10-20T20:24:01.618Z,78.07
2022-10-20T20:26:05.240Z,78.48
2022-10-20T20:28:08.522Z,78.35
2022-10-20T20:30:10.959Z,78.33
2022-10-20T20:32:12.935Z,78.25
2022-10-20T20:34:15.797Z,78.55
2022-10-20T20:36:17.860Z,78.42
2022-10-20T20:38:19.945Z,78.01
2022-10-20T20:40:22.158Z,78.09
2022-10-20T20:42:24.372Z,78.06
2022-10-20T20:44:26.469Z,78.10
2022-10-20T20:46:31.363Z,78.39
2022-10-20T20:48:36.168Z,78.49
2022-10-20T20:50:38.290Z,78.29
2022-10-20T20:52:40.344Z,78.31
2022-10-20T20:54:46.013Z,78.50
2022-10-20T20:56:51.097Z,78.52
2022-10-20T20:58:55.338Z,78.00
2022-10-20T21:01:10.704Z,77.92
2022-10-20T21:03:13.913Z,77.29
2022-10-20T21:05:16.122Z,77.91
2022-10-20T21:07:18.576Z,77.15
2022-10-20T21:09:21.439Z,77.01
2022-10-20T21:11:26.962Z,77.23
2022-10-20T21:13:32.040Z,76.98
2022-10-20T21:15:34.450Z,76.81
2022-10-20T21:17:36.545Z,76.55
2022-10-20T21:19:38.786Z,76.71
2022-10-20T21:21:50.726Z,76.67
2022-10-20T21:23:53.945Z,76.67
2022-10-20T21:25:56.186Z,76.68
2022-10-20T21:28:01.003Z,76.62
2022-10-20T21:30:03.602Z,76.31
2022-10-20T21:32:05.955Z,76.19
2022-10-20T21:34:08.455Z,76.60
2022-10-20T21:36:14.766Z,76.81
2022-10-20T21:38:17.206Z,76.56
2022-10-20T21:40:19.874Z,76.50
2022-10-20T21:42:22.004Z,76.19
2022-10-20T21:44:24.170Z,76.50
2022-10-20T21:46:35.950Z,76.46
2022-10-20T21:48:38.130Z,77.00
2022-10-20T21:50:40.182Z,76.80
2022-10-20T21:52:42.437Z,76.55
2022-10-20T21:54:44.431Z,75.96
2022-10-20T21:56:47.319Z,76.41
2022-10-20T21:58:49.469Z,76.59
2022-10-20T22:00:54.151Z,76.39
2022-10-20T22:02:56.370Z,76.25
2022-10-20T22:05:01.087Z,76.29
2022-10-20T22:07:03.345Z,76.73
2022-10-20T22:09:05.824Z,76.21
2022-10-20T22:11:13.488Z,76.68
2022-10-20T22:13:15.754Z,76.81
2022-10-20T22:15:17.851Z,76.98
2022-10-20T22:17:21.344Z,77.18
2022-10-20T22:19:24.559Z,77.18
2022-10-20T22:21:27.878Z,77.12
2022-10-20T22:23:30.195Z,76.90
2022-10-20T22:25:38.527Z,77.40
2022-10-20T22:27:42.609Z,77.30
2022-10-20T22:29:45.307Z,77.15
2022-10-20T22:31:50.002Z,77.40
2022-10-20T22:33:53.977Z,77.22
2022-10-20T22:35:56.100Z,77.30
2022-10-20T22:37:58.152Z,77.78
2022-10-20T22:40:00.712Z,77.28
2022-10-20T22:42:02.886Z,77.35
2022-10-20T22:44:06.069Z,77.78
2022-10-20T22:46:09.109Z,78.04
2022-10-20T22:48:11.316Z,77.90
2022-10-20T22:50:13.483Z,78.11
2022-10-20T22:52:15.656Z,78.35
2022-10-20T22:54:17.791Z,78.18
2022-10-20T22:56:22.311Z,78.27
2022-10-20T22:58:24.485Z,78.72
2022-10-20T23:00:26.689Z,78.92
2022-10-20T23:02:29.781Z,78.75
2022-10-20T23:04:32.107Z,78.99
2022-10-20T23:06:34.794Z,79.16
2022-10-20T23:08:44.843Z,79.49
2022-10-20T23:10:56.611Z,79.10
2022-10-20T23:12:58.799Z,79.59
2022-10-20T23:15:01.051Z,79.67
2022-10-20T23:17:06.330Z,79.31
2022-10-20T23:19:09.469Z,79.94
2022-10-20T23:21:12.320Z,79.97
2022-10-20T23:23:14.706Z,79.67
2022-10-20T23:25:17.457Z,80.15
2022-10-20T23:27:19.894Z,80.06
2022-10-20T23:29:21.831Z,80.39
2022-10-20T23:31:24.605Z,80.44
2022-10-20T23:33:26.712Z,80.18
2022-10-20T23:35:29.333Z,80.23
2022-10-20T23:37:32.219Z,80.18
2022-10-20T23:39:34.844Z,80.07
2022-10-20T23:41:37.027Z,80.20
2022-10-20T23:43:39.523Z,79.72
2022-10-20T23:45:43.342Z,79.38
2022-10-20T23:47:45.920Z,79.69
2022-10-20T23:49:48.922Z,79.98
2022-10-20T23:51:51.053Z,80.10
2022-10-20T23:53:53.309Z,80.08
2022-10-20T23:55:55.455Z,79.83
2022-10-20T23:57:57.690Z,79.85
